createdAt,value
2017-09-11T00:00:59.531Z,11.46
2017-09-11T00:03:27.848Z,11.57
2017-09-11T00:05:57.169Z,11.58
2017-09-11T00:08:26.303Z,11.55
2017-09-11T00:10:54.631Z,11.56
2017-09-11T00:13:23.011Z,11.50
2017-09-11T00:15:51.342Z,11.67
2017-09-11T00:18:20.629Z,11.64
2017-09-11T00:21:40.376Z,11.64
2017-09-11T00:24:08.727Z,11.79
2017-09-11T00:26:37.149Z,11.78
2017-09-11T00:29:05.486Z,11.87
2017-09-11T00:31:33.814Z,11.86
2017-09-11T00:34:02.904Z,11.84
2017-09-11T00:36:31.292Z,11.96
2017-09-11T00:38:59.607Z,11.88
2017-09-11T00:41:27.945Z,11.88
2017-09-11T00:43:57.077Z,11.85
2017-09-11T00:46:25.438Z,11.83
2017-09-11T00:48:53.792Z,11.93
2017-09-11T00:51:22.134Z,12.05
2017-09-11T00:53:50.466Z,12.05
2017-09-11T00:56:19.618Z,12.03
2017-09-11T00:58:47.939Z,11.96
2017-09-11T01:01:17.179Z,12.00
2017-09-11T01:03:45.517Z,12.02
2017-09-11T01:06:14.688Z,12.04
2017-09-11T01:08:43.030Z,12.05
2017-09-11T01:11:11.379Z,12.07
2017-09-11T01:13:40.579Z,12.14
2017-09-11T01:16:09.675Z,12.15
2017-09-11T01:18:38.765Z,12.13
2017-09-11T01:21:07.108Z,12.07
2017-09-11T01:23:35.429Z,12.10
2017-09-11T01:26:04.023Z,12.12
2017-09-11T01:28:32.370Z,12.19
2017-09-11T01:31:00.684Z,12.08
2017-09-11T01:33:29.042Z,12.10
2017-09-11T01:35:58.141Z,12.27
2017-09-11T01:38:27.267Z,12.35
2017-09-11T01:40:55.589Z,12.41
2017-09-11T01:43:25.100Z,12.42
2017-09-11T01:45:53.414Z,12.46
2017-09-11T01:48:22.509Z,12.52
2017-09-11T01:50:50.836Z,12.65
2017-09-11T01:53:19.204Z,12.69
2017-09-11T01:55:48.300Z,12.77
2017-09-11T01:58:17.375Z,12.83
2017-09-11T02:00:45.705Z,12.92
2017-09-11T02:03:14.041Z,12.94
2017-09-11T02:05:42.356Z,12.96
2017-09-11T02:08:10.713Z,13.03
2017-09-11T02:10:39.109Z,13.09
2017-09-11T02:13:07.546Z,13.14
2017-09-11T02:15:35.915Z,13.08
2017-09-11T02:18:05.313Z,13.14
2017-09-11T02:20:33.631Z,13.11
2017-09-11T02:23:01.969Z,13.16
2017-09-11T02:25:31.066Z,13.21
2017-09-11T02:28:00.259Z,13.21
2017-09-11T02:30:29.398Z,13.22
2017-09-11T02:32:57.725Z,13.25
2017-09-11T02:35:26.073Z,13.24
2017-09-11T02:37:54.394Z,13.27
2017-09-11T02:40:23.537Z,13.24
2017-09-11T02:42:51.880Z,13.22
2017-09-11T02:45:20.218Z,13.19
2017-09-11T02:47:48.543Z,13.17
2017-09-11T02:50:17.641Z,13.22
2017-09-11T02:52:46.239Z,13.21
2017-09-11T02:55:14.582Z,13.22
2017-09-11T02:57:42.918Z,13.18
2017-09-11T03:00:12.158Z,13.19
2017-09-11T03:02:40.492Z,13.19
2017-09-11T03:05:08.843Z,13.24
2017-09-11T03:07:37.930Z,13.21
2017-09-11T03:10:06.267Z,13.25
2017-09-11T03:12:34.607Z,13.24
2017-09-11T03:15:02.956Z,13.12
2017-09-11T03:17:31.305Z,13.10
2017-09-11T03:19:59.633Z,13.14
2017-09-11T03:22:28.030Z,13.12
2017-09-11T03:24:56.380Z,13.10
2017-09-11T03:27:25.488Z,13.15
2017-09-11T03:29:53.798Z,13.15
2017-09-11T03:32:22.130Z,13.16
2017-09-11T03:34:50.536Z,13.17
2017-09-11T03:37:18.945Z,13.17
2017-09-11T03:39:47.297Z,13.17
2017-09-11T03:42:15.624Z,13.21
2017-09-11T03:44:44.240Z,13.22
2017-09-11T03:47:12.563Z,13.26
2017-09-11T03:49:40.878Z,13.19
2017-09-11T03:52:09.211Z,13.15
2017-09-11T03:54:37.528Z,13.17
2017-09-11T03:57:05.965Z,13.22
2017-09-11T03:59:34.317Z,13.18
2017-09-11T04:02:03.428Z,13.22
2017-09-11T04:04:31.752Z,13.21
2017-09-11T04:07:00.093Z,13.16
2017-09-11T04:09:28.434Z,13.10
2017-09-11T04:11:56.839Z,13.13
2017-09-11T04:14:25.949Z,13.08
2017-09-11T04:16:54.257Z,13.17
2017-09-11T04:19:22.619Z,13.13
2017-09-11T04:21:51.639Z,13.19
2017-09-11T04:24:19.983Z,13.18
2017-09-11T04:26:48.324Z,13.10
2017-09-11T04:29:16.647Z,13.17
2017-09-11T04:31:48.680Z,13.19
2017-09-11T04:34:17.014Z,13.18
2017-09-11T04:36:45.953Z,13.21
2017-09-11T04:39:14.275Z,13.21
2017-09-11T04:41:42.604Z,13.23
2017-09-11T04:44:10.938Z,13.20
2017-09-11T04:46:40.031Z,13.15
2017-09-11T04:49:08.374Z,13.19
2017-09-11T04:51:37.480Z,13.20
2017-09-11T04:54:06.558Z,13.26
2017-09-11T04:56:35.065Z,13.28
2017-09-11T04:59:03.404Z,13.15
2017-09-11T05:01:31.742Z,13.15
2017-09-11T05:04:00.098Z,13.10
2017-09-11T05:06:28.423Z,13.18
2017-09-11T05:08:56.781Z,13.14
2017-09-11T05:11:25.126Z,13.26
2017-09-11T05:13:53.476Z,13.26
2017-09-11T05:16:21.825Z,13.27
2017-09-11T05:18:51.398Z,13.33
2017-09-11T05:21:20.499Z,13.29
2017-09-11T05:23:48.832Z,13.30
2017-09-11T05:26:17.559Z,13.32
2017-09-11T05:28:45.892Z,13.34
2017-09-11T05:31:14.230Z,13.31
2017-09-11T05:33:42.569Z,13.31
2017-09-11T05:36:10.881Z,13.33
2017-09-11T05:38:39.261Z,13.28
2017-09-11T05:41:07.575Z,13.35
2017-09-11T05:43:35.906Z,13.32
2017-09-11T05:46:04.248Z,13.35
2017-09-11T05:48:32.576Z,13.30
2017-09-11T05:51:01.706Z,13.35
2017-09-11T05:53:30.036Z,13.39
2017-09-11T05:55:59.129Z,13.48
2017-09-11T05:58:27.501Z,13.50
2017-09-11T06:00:55.833Z,13.58
2017-09-11T06:03:24.173Z,13.63
2017-09-11T06:05:52.491Z,13.69
2017-09-11T06:08:20.847Z,13.72
2017-09-11T06:10:49.963Z,13.78
2017-09-11T06:13:18.294Z,13.84
2017-09-11T06:15:46.607Z,13.87
2017-09-11T06:18:14.962Z,13.87
2017-09-11T06:20:44.047Z,13.85
2017-09-11T06:23:12.393Z,13.82
2017-09-11T06:25:40.742Z,13.85
2017-09-11T06:28:09.073Z,13.90
2017-09-11T06:30:37.404Z,13.92
2017-09-11T06:33:05.721Z,13.91
2017-09-11T06:35:34.078Z,13.92
2017-09-11T06:38:02.424Z,13.91
2017-09-11T06:40:30.735Z,13.93
2017-09-11T06:42:59.073Z,13.98
2017-09-11T06:45:28.169Z,13.95
2017-09-11T06:47:56.771Z,13.98
2017-09-11T06:50:25.858Z,13.91
2017-09-11T06:52:54.183Z,13.95
2017-09-11T06:55:22.516Z,14.00
2017-09-11T06:57:51.603Z,13.97
2017-09-11T07:00:20.297Z,14.01
2017-09-11T07:02:48.620Z,13.98
2017-09-11T07:05:16.961Z,13.96
2017-09-11T07:07:46.077Z,14.03
2017-09-11T07:10:14.415Z,14.03
2017-09-11T07:15:55.298Z,14.00
2017-09-11T07:18:23.675Z,14.02
2017-09-11T07:20:51.991Z,14.05
2017-09-11T07:23:20.580Z,14.08
2017-09-11T07:25:48.891Z,14.09
2017-09-11T07:28:17.216Z,14.18
2017-09-11T07:30:45.560Z,14.21
2017-09-11T07:33:13.888Z,14.24
2017-09-11T07:35:42.240Z,14.24
2017-09-11T07:38:10.579Z,14.29
2017-09-11T07:40:38.934Z,14.30
2017-09-11T07:43:07.266Z,14.37
2017-09-11T07:45:35.612Z,14.33
2017-09-11T07:48:03.966Z,14.30
2017-09-11T07:50:33.069Z,14.35
2017-09-11T07:53:01.407Z,14.39
2017-09-11T07:55:29.732Z,14.42
2017-09-11T07:57:58.073Z,14.47
2017-09-11T08:00:26.412Z,14.58
2017-09-11T08:02:54.757Z,14.62
2017-09-11T08:05:23.120Z,14.61
2017-09-11T08:07:51.456Z,14.66
2017-09-11T08:10:19.793Z,14.69
2017-09-11T08:12:48.889Z,14.64
2017-09-11T08:15:18.020Z,14.73
2017-09-11T08:17:46.350Z,14.73
2017-09-11T08:20:14.746Z,14.72
2017-09-11T08:22:43.861Z,14.75
2017-09-11T08:25:12.205Z,14.75
2017-09-11T08:27:40.543Z,14.75
2017-09-11T08:30:08.867Z,14.74
2017-09-11T08:32:37.472Z,14.73
2017-09-11T08:35:05.790Z,14.74
2017-09-11T08:37:34.126Z,14.77
2017-09-11T08:40:02.460Z,14.76
2017-09-11T08:42:30.778Z,14.80
2017-09-11T08:44:59.875Z,14.80
2017-09-11T08:47:28.191Z,14.84
2017-09-11T08:49:56.542Z,14.83
2017-09-11T08:52:25.654Z,14.86
2017-09-11T08:54:53.981Z,14.89
2017-09-11T08:57:22.323Z,14.99
2017-09-11T08:59:50.655Z,15.03
2017-09-11T09:02:19.451Z,15.07
2017-09-11T09:04:47.791Z,15.02
2017-09-11T09:07:16.107Z,15.03
2017-09-11T09:09:45.231Z,15.15
2017-09-11T09:12:13.574Z,15.17
2017-09-11T09:14:41.971Z,15.18
2017-09-11T09:17:10.293Z,15.07
2017-09-11T09:19:38.654Z,14.98
2017-09-11T09:22:06.983Z,15.02
2017-09-11T09:24:35.500Z,15.05
2017-09-11T09:27:03.833Z,15.10
2017-09-11T09:29:32.173Z,15.10
2017-09-11T09:32:00.520Z,15.25
2017-09-11T09:34:28.855Z,15.34
2017-09-11T09:36:57.219Z,15.42
2017-09-11T09:39:25.548Z,15.51
2017-09-11T09:41:53.884Z,15.56
2017-09-11T09:44:22.257Z,15.45
2017-09-11T09:46:50.578Z,15.49
2017-09-11T09:49:18.931Z,15.48
2017-09-11T09:51:47.271Z,15.51
2017-09-11T09:54:16.662Z,15.48
2017-09-11T09:56:44.992Z,15.50
2017-09-11T09:59:13.320Z,15.63
2017-09-11T10:01:42.432Z,15.75
2017-09-11T10:04:10.835Z,15.86
2017-09-11T10:06:39.216Z,15.89
2017-09-11T10:09:07.531Z,16.03
2017-09-11T10:11:36.244Z,16.10
2017-09-11T10:14:04.600Z,16.14
2017-09-11T10:16:32.941Z,16.05
2017-09-11T10:19:01.290Z,16.01
2017-09-11T10:21:30.375Z,15.99
2017-09-11T10:23:58.701Z,15.98
2017-09-11T10:26:27.042Z,16.06
2017-09-11T10:28:56.437Z,16.15
2017-09-11T10:31:24.760Z,16.13
2017-09-11T10:33:53.095Z,16.15
2017-09-11T10:36:22.199Z,16.18
2017-09-11T10:38:50.524Z,16.10
2017-09-11T10:41:18.871Z,16.02
2017-09-11T10:43:47.966Z,15.89
2017-09-11T10:46:16.311Z,15.91
2017-09-11T10:48:44.641Z,15.83
2017-09-11T10:51:13.051Z,15.83
2017-09-11T10:53:41.380Z,15.85
2017-09-11T10:56:10.471Z,15.85
2017-09-11T10:58:39.592Z,15.96
2017-09-11T11:01:07.928Z,16.11
2017-09-11T11:03:36.270Z,16.25
2017-09-11T11:06:04.635Z,16.35
2017-09-11T11:08:32.980Z,16.39
2017-09-11T11:11:01.337Z,16.52
2017-09-11T11:13:29.681Z,16.61
2017-09-11T11:15:58.062Z,16.67
2017-09-11T11:18:26.388Z,16.74
2017-09-11T11:20:54.739Z,16.97
2017-09-11T11:23:23.143Z,17.01
2017-09-11T11:25:51.470Z,16.98
2017-09-11T11:28:19.803Z,16.88
2017-09-11T11:30:48.135Z,16.66
2017-09-11T11:33:16.486Z,16.61
2017-09-11T11:35:45.564Z,16.57
2017-09-11T11:38:13.915Z,16.47
2017-09-11T11:40:42.258Z,16.40
2017-09-11T11:43:10.617Z,16.48
2017-09-11T11:45:38.958Z,16.28
2017-09-11T11:48:07.294Z,16.19
2017-09-11T11:50:35.646Z,16.12
2017-09-11T11:53:05.497Z,16.06
2017-09-11T11:55:34.380Z,16.05
2017-09-11T11:58:02.704Z,16.05
2017-09-11T12:00:31.044Z,16.02
2017-09-11T12:02:59.405Z,16.02
2017-09-11T12:05:28.508Z,16.06
2017-09-11T12:07:56.861Z,16.15
2017-09-11T12:10:25.186Z,16.24
2017-09-11T12:12:53.538Z,16.34
2017-09-11T12:15:22.660Z,16.46
2017-09-11T12:17:51.029Z,16.60
2017-09-11T12:20:19.364Z,16.72
2017-09-11T12:22:47.683Z,16.86
2017-09-11T12:25:16.029Z,16.99
2017-09-11T12:27:44.365Z,17.09
2017-09-11T12:30:13.617Z,17.11
2017-09-11T12:32:41.960Z,17.13
2017-09-11T12:35:11.064Z,17.11
2017-09-11T12:37:39.408Z,17.03
2017-09-11T12:40:07.753Z,16.93
2017-09-11T12:42:36.101Z,16.85
2017-09-11T12:45:04.432Z,16.96
2017-09-11T12:47:33.106Z,17.10
2017-09-11T12:50:01.421Z,17.29
2017-09-11T12:52:29.753Z,17.40
2017-09-11T12:54:59.138Z,17.50
2017-09-11T12:57:27.460Z,17.66
2017-09-11T12:59:55.816Z,17.69
2017-09-11T13:02:24.210Z,17.73
2017-09-11T13:04:53.340Z,17.81
2017-09-11T13:07:21.688Z,17.83
2017-09-11T13:09:50.026Z,17.87
2017-09-11T13:12:18.379Z,17.97
2017-09-11T13:14:46.691Z,18.03
2017-09-11T13:17:15.404Z,18.13
2017-09-11T13:19:44.500Z,18.20
2017-09-11T13:22:12.853Z,18.25
2017-09-11T13:24:41.174Z,18.29
2017-09-11T13:27:09.524Z,18.35
2017-09-11T13:29:38.244Z,18.33
2017-09-11T13:32:06.586Z,18.34
2017-09-11T13:34:34.950Z,18.26
2017-09-11T13:37:03.274Z,18.21
2017-09-11T13:39:32.651Z,18.25
2017-09-11T13:42:01.880Z,18.29
2017-09-11T13:44:30.223Z,18.17
2017-09-11T13:46:58.578Z,18.13
2017-09-11T13:49:27.001Z,18.04
2017-09-11T13:51:55.349Z,17.97
2017-09-11T13:54:23.689Z,18.13
2017-09-11T13:56:52.338Z,18.25
2017-09-11T13:59:20.655Z,18.27
2017-09-11T14:01:48.993Z,18.24
2017-09-11T14:04:17.438Z,18.30
2017-09-11T14:06:45.773Z,18.38
2017-09-11T14:09:14.893Z,18.43
2017-09-11T14:11:43.233Z,18.53
2017-09-11T14:14:11.601Z,18.61
2017-09-11T14:16:39.907Z,18.58
2017-09-11T14:19:09.022Z,18.97
2017-09-11T14:21:37.355Z,19.38
2017-09-11T14:24:05.679Z,19.50
2017-09-11T14:26:34.431Z,19.35
2017-09-11T14:29:02.759Z,19.05
2017-09-11T14:31:31.081Z,19.32
2017-09-11T14:33:59.419Z,19.94
2017-09-11T14:36:27.732Z,20.44
2017-09-11T14:38:56.584Z,20.56
2017-09-11T14:41:25.019Z,20.17
2017-09-11T14:43:53.334Z,19.90
2017-09-11T14:46:21.693Z,19.87
2017-09-11T14:48:50.805Z,19.26
2017-09-11T14:51:19.180Z,19.05
2017-09-11T14:53:48.281Z,18.84
2017-09-11T14:56:16.961Z,18.57
2017-09-11T14:58:46.052Z,18.20
2017-09-11T15:01:15.233Z,17.66
2017-09-11T15:03:43.604Z,17.42
2017-09-11T15:06:11.954Z,17.31
2017-09-11T15:08:40.285Z,17.20
2017-09-11T15:11:08.625Z,17.20
2017-09-11T15:13:36.984Z,17.13
2017-09-11T15:16:05.356Z,17.01
2017-09-11T15:18:33.710Z,17.11
2017-09-11T15:21:02.822Z,17.75
2017-09-11T15:23:31.742Z,18.25
2017-09-11T15:26:00.840Z,18.74
2017-09-11T15:28:29.182Z,18.91
2017-09-11T15:30:57.527Z,19.15
2017-09-11T15:33:25.869Z,19.73
2017-09-11T15:35:54.195Z,20.20
2017-09-11T15:38:22.555Z,20.26
2017-09-11T15:40:50.893Z,20.54
2017-09-11T15:43:19.239Z,20.74
2017-09-11T15:45:47.567Z,20.92
2017-09-11T15:48:16.212Z,21.25
2017-09-11T15:50:44.554Z,21.33
2017-09-11T15:53:12.901Z,21.45
2017-09-11T15:55:41.275Z,21.30
2017-09-11T15:58:09.599Z,21.13
2017-09-11T16:00:38.301Z,20.88
2017-09-11T16:03:06.635Z,20.49
2017-09-11T16:05:34.993Z,19.96
2017-09-11T16:08:03.345Z,19.66
2017-09-11T16:10:32.518Z,19.15
2017-09-11T16:13:00.881Z,18.96
2017-09-11T16:15:29.208Z,18.83
2017-09-11T16:17:57.571Z,18.68
2017-09-11T16:20:25.903Z,18.54
2017-09-11T16:22:54.279Z,18.38
2017-09-11T16:25:22.628Z,18.17
2017-09-11T16:27:51.749Z,17.84
2017-09-11T16:30:20.102Z,17.69
2017-09-11T16:32:49.199Z,17.60
2017-09-11T16:35:17.902Z,17.50
2017-09-11T16:37:46.237Z,17.42
2017-09-11T16:40:15.965Z,17.28
2017-09-11T16:42:44.318Z,17.19
2017-09-11T16:45:12.653Z,17.11
2017-09-11T16:47:41.315Z,16.98
2017-09-11T16:50:09.682Z,16.83
2017-09-11T16:52:37.999Z,16.78
2017-09-11T16:55:06.387Z,16.74
2017-09-11T16:57:35.471Z,16.66
2017-09-11T17:00:04.569Z,16.46
2017-09-11T17:02:33.665Z,16.44
2017-09-11T17:05:03.042Z,16.30
2017-09-11T17:07:31.377Z,16.18
2017-09-11T17:09:59.696Z,16.04
2017-09-11T17:12:28.060Z,16.08
2017-09-11T17:14:56.417Z,16.03
2017-09-11T17:17:24.809Z,15.84
2017-09-11T17:19:53.153Z,15.88
2017-09-11T17:22:22.035Z,15.83
2017-09-11T17:24:51.149Z,15.83
2017-09-11T17:27:19.470Z,15.74
2017-09-11T17:29:47.834Z,15.75
2017-09-11T17:32:16.174Z,15.57
2017-09-11T17:34:45.304Z,15.50
2017-09-11T17:37:14.060Z,15.46
2017-09-11T17:39:42.419Z,15.39
2017-09-11T17:42:11.557Z,15.29
2017-09-11T17:44:39.899Z,15.25
2017-09-11T17:47:08.252Z,15.30
2017-09-11T17:49:36.584Z,15.22
2017-09-11T17:52:04.941Z,15.06
2017-09-11T17:54:34.759Z,15.00
2017-09-11T17:57:03.117Z,14.91
2017-09-11T17:59:31.464Z,14.98
2017-09-11T18:01:59.783Z,14.94
2017-09-11T18:04:28.131Z,14.85
2017-09-11T18:06:56.494Z,14.73
2017-09-11T18:09:25.854Z,14.74
2017-09-11T18:11:54.182Z,14.66
2017-09-11T18:14:22.518Z,14.57
2017-09-11T18:16:51.625Z,14.47
2017-09-11T18:19:19.966Z,14.41
2017-09-11T18:21:48.315Z,14.41
2017-09-11T18:24:16.667Z,14.34
2017-09-11T18:26:45.443Z,14.25
2017-09-11T18:29:14.054Z,14.25
2017-09-11T18:31:42.398Z,14.20
2017-09-11T18:34:11.516Z,14.17
2017-09-11T18:36:39.835Z,14.13
2017-09-11T18:39:08.180Z,13.99
2017-09-11T18:41:36.610Z,14.01
2017-09-11T18:44:04.991Z,13.93
2017-09-11T18:46:33.342Z,14.02
2017-09-11T18:49:01.667Z,13.82
2017-09-11T18:51:30.069Z,13.86
2017-09-11T18:53:59.173Z,13.85
2017-09-11T18:56:27.522Z,13.87
2017-09-11T18:58:55.865Z,13.84
2017-09-11T19:01:24.229Z,13.79
2017-09-11T19:03:53.365Z,13.76
2017-09-11T19:06:21.727Z,13.73
2017-09-11T19:08:51.746Z,13.78
2017-09-11T19:11:20.082Z,13.70
2017-09-11T19:13:48.474Z,13.69
2017-09-11T19:16:18.825Z,13.63
2017-09-11T19:18:47.198Z,13.60
2017-09-11T19:21:15.544Z,13.63
2017-09-11T19:23:45.180Z,13.66
2017-09-11T19:26:13.537Z,13.62
2017-09-11T19:28:41.878Z,13.64
2017-09-11T19:31:10.606Z,13.64
2017-09-11T19:33:38.959Z,13.52
2017-09-11T19:36:07.398Z,13.57
2017-09-11T19:38:36.320Z,13.56
2017-09-11T19:41:04.681Z,13.60
2017-09-11T19:43:33.039Z,13.56
2017-09-11T19:46:01.375Z,13.57
2017-09-11T19:48:29.875Z,13.56
2017-09-11T19:50:59.022Z,13.59
2017-09-11T19:53:27.662Z,13.57
2017-09-11T19:55:56.759Z,13.55
2017-09-11T19:58:25.089Z,13.58
2017-09-11T20:00:54.318Z,13.61
2017-09-11T20:03:22.650Z,13.61
2017-09-11T20:05:51.044Z,13.64
2017-09-11T20:08:19.457Z,13.63
2017-09-11T20:10:47.808Z,13.65
2017-09-11T20:13:16.138Z,13.63
2017-09-11T20:15:44.453Z,13.66
2017-09-11T20:18:12.839Z,13.67
2017-09-11T20:20:41.179Z,13.60
2017-09-11T20:23:09.664Z,13.68
2017-09-11T20:25:38.017Z,13.59
2017-09-11T20:28:07.145Z,13.62
2017-09-11T20:30:35.495Z,13.64
2017-09-11T20:33:03.820Z,13.63
2017-09-11T20:35:33.020Z,13.53
2017-09-11T20:38:01.368Z,13.48
2017-09-11T20:40:29.714Z,13.31
2017-09-11T20:42:58.048Z,13.42
2017-09-11T20:45:26.722Z,13.48
2017-09-11T20:47:55.052Z,13.44
2017-09-11T20:50:23.400Z,13.40
2017-09-11T20:52:52.497Z,13.38
2017-09-11T20:55:20.825Z,13.27
2017-09-11T20:57:49.146Z,13.24
2017-09-11T21:00:17.454Z,13.27
2017-09-11T21:02:45.807Z,13.33
2017-09-11T21:05:15.197Z,13.33
2017-09-11T21:07:43.594Z,13.33
2017-09-11T21:10:11.975Z,13.23
2017-09-11T21:12:41.378Z,13.14
2017-09-11T21:15:10.226Z,13.09
2017-09-11T21:17:39.026Z,13.09
2017-09-11T21:20:08.310Z,13.15
2017-09-11T21:22:37.001Z,13.20
2017-09-11T21:25:05.967Z,13.17
2017-09-11T21:27:35.133Z,13.18
2017-09-11T21:30:04.221Z,13.25
2017-09-11T21:32:33.368Z,13.25
2017-09-11T21:35:02.385Z,13.29
2017-09-11T21:37:31.494Z,13.27
2017-09-11T21:40:01.088Z,13.27
2017-09-11T21:42:30.032Z,13.24
2017-09-11T21:44:58.883Z,13.25
2017-09-11T21:47:27.970Z,13.31
2017-09-11T21:49:58.127Z,13.35
2017-09-11T21:52:26.956Z,13.30
2017-09-11T21:54:55.807Z,13.23
2017-09-11T21:57:24.500Z,13.26
2017-09-11T21:59:53.237Z,13.29
2017-09-11T22:02:22.052Z,13.32
2017-09-11T22:04:51.760Z,13.29
2017-09-11T22:07:20.926Z,13.16
2017-09-11T22:09:49.740Z,13.20
2017-09-11T22:12:18.874Z,13.21
2017-09-11T22:14:47.641Z,13.27
2017-09-11T22:17:17.502Z,13.27
2017-09-11T22:19:45.812Z,13.23
2017-09-11T22:22:14.131Z,13.24
2017-09-11T22:24:42.459Z,13.26
2017-09-11T22:27:10.767Z,13.32
2017-09-11T22:29:39.894Z,13.36
2017-09-11T22:32:08.212Z,13.37
2017-09-11T22:34:37.277Z,13.38
2017-09-11T22:37:05.613Z,13.38
2017-09-11T22:39:34.803Z,13.42
2017-09-11T22:42:03.214Z,13.33
2017-09-11T22:44:31.571Z,13.36
2017-09-11T22:47:00.705Z,13.44
2017-09-11T22:49:29.025Z,13.44
2017-09-11T22:51:57.728Z,13.48
2017-09-11T22:54:26.036Z,13.49
2017-09-11T22:56:54.375Z,13.42
2017-09-11T22:59:22.725Z,13.45
2017-09-11T23:01:51.154Z,13.37
2017-09-11T23:04:20.255Z,13.40
2017-09-11T23:06:48.577Z,13.44
2017-09-11T23:09:16.932Z,13.39
2017-09-11T23:11:45.254Z,13.39
2017-09-11T23:14:13.583Z,13.41
2017-09-11T23:16:42.075Z,13.41
2017-09-11T23:19:10.403Z,13.34
2017-09-11T23:21:38.743Z,13.31
2017-09-11T23:24:07.052Z,13.28
2017-09-11T23:26:35.402Z,13.29
2017-09-11T23:29:03.726Z,13.30
2017-09-11T23:31:32.058Z,13.33
2017-09-11T23:34:00.412Z,13.34
2017-09-11T23:36:29.501Z,13.33
2017-09-11T23:38:58.609Z,13.31
2017-09-11T23:41:26.953Z,13.30
2017-09-11T23:43:55.332Z,13.31
2017-09-11T23:46:23.655Z,13.29
2017-09-11T23:48:52.003Z,13.22
2017-09-11T23:51:20.341Z,13.19
2017-09-11T23:53:48.674Z,13.18
2017-09-11T23:56:17.782Z,13.17
2017-09-11T23:58:46.105Z,13.15
